首页
METAR-TAF:

METAR-TAF

机场 :

Stevens Point Municipal Airport

Stevens Point, 威斯康辛州, 美国

纬度: 44-32-42N, 经度: 089-31-49W, 海拔: 338米

当前天气观测

该预报发布于20分钟前的23:55 UTC
风速7节,风向西
温度 19°C
湿度 83%
气压 1001 hPa
能見度: 16.1公里
散云层高于2500英尺
多云层高于4900英尺
阴天层高于5500英尺
小雨

METAR: KSTE 242355Z AUTO 26007KT 10SM -RA SCT025 BKN049 OVC055 19/16 A2956 RMK AO2 LTG DSNT N T01890158 10200 20177

时间: 19:15 (00:15 UTC)


TAF: 丢失

超过4000个机场的气象观测和天气预报(METAR&TAF报告)。

可查询的气象台以黄色和红色小点在地图上表示。

将鼠标移到小点上方,可查看气象台名称。

然后点击查看天气观测和预报。

如需切换地图:点击带黑十字的绿色按钮放大地图;点击带横线的绿色按钮缩小地图;或者点击绿色箭头查看邻近地区的地图。


METAR-TAF: